Time;durP1;ratioP1;P1;durP2;ratioP2;P2;SDS_P1;SDS_P2;PMS_P1;PMS_P2;Temp;Humidity;BMP_temperature;BMP_pressure;BME280_temperature;BME280_humidity;BME280_pressure;Samples;Min_cycle;Max_cycle;Signal;HPM_P1;HPM_P2
2023/05/24 00:01:32;;;;;;;11.60;2.75;;;9.20;99.90;;;;;;5156429;27;20091;-70
2023/05/24 00:03:57;;;;;;;12.15;3.03;;;9.20;99.90;;;;;;5157459;27;20480;-70
2023/05/24 00:06:25;;;;;;;13.50;3.05;;;9.20;99.90;;;;;;5160074;27;20038;-69
2023/05/24 00:08:51;;;;;;;13.95;3.33;;;9.20;99.90;;;;;;5158164;27;20394;-70
2023/05/24 00:11:17;;;;;;;13.57;3.15;;;9.20;99.90;;;;;;5157922;27;20109;-71
2023/05/24 00:13:43;;;;;;;11.75;3.08;;;9.20;99.90;;;;;;5157031;27;20493;-71
2023/05/24 00:16:08;;;;;;;13.57;3.97;;;9.20;99.90;;;;;;5156838;27;20058;-72
2023/05/24 00:18:40;;;;;;;13.77;2.72;;;9.20;99.90;;;;;;5156653;27;20046;-70
2023/05/24 00:21:07;;;;;;;17.70;3.65;;;9.20;99.90;;;;;;5156765;27;20047;-71
2023/05/24 00:23:33;;;;;;;11.00;2.60;;;9.20;99.90;;;;;;5156703;27;20054;-70
2023/05/24 00:26:00;;;;;;;14.30;3.10;;;9.20;99.90;;;;;;5156635;27;20137;-70
2023/05/24 00:28:26;;;;;;;10.57;2.65;;;9.20;99.90;;;;;;5137891;27;20062;-70
2023/05/24 00:30:52;;;;;;;11.43;2.97;;;9.20;99.90;;;;;;5138148;27;20039;-70
2023/05/24 00:33:18;;;;;;;9.63;2.35;;;9.20;99.90;;;;;;5137928;27;20051;-70
2023/05/24 00:35:44;;;;;;;12.25;3.20;;;9.20;99.90;;;;;;5155750;27;20096;-70
2023/05/24 00:38:10;;;;;;;9.15;2.67;;;9.20;99.90;;;;;;5156637;27;20113;-70
2023/05/24 00:40:35;;;;;;;11.35;2.95;;;9.20;99.90;;;;;;5103957;27;20182;-70
2023/05/24 00:43:01;;;;;;;10.75;3.10;;;9.20;99.90;;;;;;5156171;27;20439;-70
2023/05/24 00:45:27;;;;;;;8.98;2.20;;;9.20;99.90;;;;;;5156192;27;20045;-70
2023/05/24 00:47:53;;;;;;;10.93;2.88;;;9.20;99.90;;;;;;5156382;27;20399;-71
2023/05/24 00:50:19;;;;;;;10.90;3.00;;;9.20;99.90;;;;;;5156008;27;20046;-70
2023/05/24 00:52:48;;;;;;;12.55;2.67;;;9.20;99.90;;;;;;5155980;27;20095;-71
2023/05/24 00:55:14;;;;;;;13.25;2.72;;;9.20;99.90;;;;;;5137508;27;20500;-70
2023/05/24 00:57:40;;;;;;;13.75;2.88;;;9.20;99.90;;;;;;5137737;27;20122;-70
2023/05/24 01:00:06;;;;;;;13.77;3.20;;;9.20;99.90;;;;;;5155719;27;20038;-70
2023/05/24 01:02:32;;;;;;;12.35;3.00;;;9.20;99.90;;;;;;5156259;27;20447;-70
2023/05/24 01:04:58;;;;;;;10.50;2.67;;;9.10;99.90;;;;;;5155276;27;20122;-70
2023/05/24 01:07:44;;;;;;;10.02;2.72;;;9.20;99.90;;;;;;5155797;27;20046;-70
2023/05/24 01:10:29;;;;;;;12.60;3.28;;;9.20;99.90;;;;;;5155812;27;20042;-70
2023/05/24 01:13:26;;;;;;;11.25;3.05;;;9.20;99.90;;;;;;5154893;27;20125;-71
2023/05/24 01:16:06;;;;;;;10.20;2.70;;;9.20;99.90;;;;;;5155567;27;20125;-70
2023/05/24 01:18:37;;;;;;;12.02;3.28;;;9.30;99.90;;;;;;5155863;27;20039;-70
2023/05/24 01:21:16;;;;;;;10.25;2.60;;;9.30;99.90;;;;;;5155143;27;20478;-70
2023/05/24 01:23:53;;;;;;;11.35;2.67;;;9.40;99.90;;;;;;5155688;27;20051;-70
2023/05/24 01:26:47;;;;;;;16.17;3.08;;;9.40;99.90;;;;;;5155516;27;20482;-70
2023/05/24 01:29:15;;;;;;;10.40;2.70;;;9.40;99.90;;;;;;5155484;27;20042;-70
2023/05/24 01:31:41;;;;;;;13.30;3.50;;;9.50;99.90;;;;;;5136988;27;20547;-70
2023/05/24 01:34:07;;;;;;;13.05;2.90;;;9.50;99.90;;;;;;5155304;27;20096;-71
2023/05/24 01:36:32;;;;;;;11.98;2.90;;;9.50;99.90;;;;;;5154681;27;20047;-70
2023/05/24 01:38:58;;;;;;;8.02;2.97;;;9.50;99.90;;;;;;5154880;27;20126;-70
2023/05/24 01:41:46;;;;;;;10.50;2.95;;;9.50;99.90;;;;;;5137334;27;20047;-70
2023/05/24 01:44:36;;;;;;;9.70;2.63;;;9.50;99.90;;;;;;5155318;27;20091;-70
2023/05/24 01:47:24;;;;;;;15.40;2.67;;;9.50;99.90;;;;;;5155274;27;20039;-70
2023/05/24 01:50:00;;;;;;;11.68;2.90;;;9.50;99.90;;;;;;5155531;27;20051;-70
2023/05/24 01:52:33;;;;;;;20.92;3.08;;;9.50;99.90;;;;;;5155374;27;20053;-70
2023/05/24 01:54:59;;;;;;;15.38;3.47;;;9.50;99.90;;;;;;5155618;27;20047;-70
2023/05/24 01:57:27;;;;;;;10.80;2.53;;;9.50;99.90;;;;;;5155095;27;20093;-70
2023/05/24 01:59:54;;;;;;;11.88;2.95;;;9.60;99.90;;;;;;5136704;27;20547;-70
2023/05/24 02:02:20;;;;;;;11.60;2.58;;;9.60;99.90;;;;;;5155104;27;20039;-71
2023/05/24 02:04:46;;;;;;;16.02;3.10;;;9.60;99.90;;;;;;5154491;27;20095;-71
2023/05/24 02:07:12;;;;;;;8.40;2.30;;;9.50;99.90;;;;;;5155040;27;20042;-70
2023/05/24 02:09:38;;;;;;;7.55;2.65;;;9.50;99.90;;;;;;5136794;27;20043;-70
2023/05/24 02:12:04;;;;;;;7.32;2.30;;;9.60;99.90;;;;;;5155550;27;20489;-70
2023/05/24 02:14:30;;;;;;;9.93;2.20;;;9.50;99.90;;;;;;5155271;27;20043;-69
2023/05/24 02:16:57;;;;;;;11.82;3.28;;;9.50;99.90;;;;;;5154975;27;20047;-70
2023/05/24 02:19:24;;;;;;;5.05;2.40;;;9.50;99.90;;;;;;5136539;27;20117;-70
2023/05/24 02:21:50;;;;;;;12.52;2.83;;;9.60;99.90;;;;;;5155136;27;20133;-70
2023/05/24 02:24:17;;;;;;;10.27;2.50;;;9.60;99.90;;;;;;5138769;27;20115;-69
2023/05/24 02:26:43;;;;;;;9.95;2.80;;;9.60;99.90;;;;;;5160664;27;20058;-69
2023/05/24 02:29:09;;;;;;;9.43;2.15;;;9.60;99.90;;;;;;5161468;27;20057;-69
2023/05/24 02:31:35;;;;;;;10.68;2.88;;;9.70;99.90;;;;;;5159303;27;20125;-70
2023/05/24 02:34:01;;;;;;;9.07;2.30;;;9.70;99.90;;;;;;5158764;27;20115;-70
2023/05/24 02:36:27;;;;;;;10.52;2.65;;;9.70;99.90;;;;;;5158828;27;20041;-69
2023/05/24 02:38:53;;;;;;;10.40;2.38;;;9.70;99.90;;;;;;5158648;27;20424;-69
2023/05/24 02:41:19;;;;;;;10.65;2.45;;;9.70;99.90;;;;;;5159068;27;20494;-70
2023/05/24 02:43:45;;;;;;;7.25;2.47;;;9.70;99.90;;;;;;5140064;27;20501;-70
2023/05/24 02:46:11;;;;;;;11.05;2.45;;;9.70;99.90;;;;;;5158588;27;20046;-69
2023/05/24 02:48:37;;;;;;;9.20;2.35;;;9.80;99.90;;;;;;5158627;27;20443;-69
2023/05/24 02:51:03;;;;;;;7.18;2.30;;;9.80;99.90;;;;;;5158563;27;20085;-70
2023/05/24 02:53:30;;;;;;;10.85;2.45;;;9.80;99.90;;;;;;5158736;27;20042;-70
2023/05/24 02:55:56;;;;;;;12.32;2.75;;;9.70;99.90;;;;;;5139961;27;20103;-71
2023/05/24 02:58:22;;;;;;;7.97;1.90;;;9.70;99.90;;;;;;5158446;27;20395;-69
2023/05/24 03:00:48;;;;;;;10.20;2.25;;;9.70;99.90;;;;;;5139565;27;20050;-69
2023/05/24 03:03:14;;;;;;;8.68;1.52;;;9.70;99.90;;;;;;5140188;27;20123;-69
2023/05/24 03:05:40;;;;;;;8.10;2.33;;;9.70;99.90;;;;;;5157692;27;20138;-70
2023/05/24 03:08:06;;;;;;;10.63;2.80;;;9.70;99.90;;;;;;5158361;27;20078;-69
2023/05/24 03:10:32;;;;;;;10.50;2.45;;;9.70;99.90;;;;;;5158123;27;20043;-70
2023/05/24 03:12:58;;;;;;;7.80;2.38;;;9.70;99.90;;;;;;5158741;27;20050;-70
2023/05/24 03:15:24;;;;;;;8.98;2.30;;;9.60;99.90;;;;;;5140532;27;20447;-69
2023/05/24 03:17:49;;;;;;;6.18;2.17;;;9.60;99.90;;;;;;5157956;27;20053;-69
2023/05/24 03:20:16;;;;;;;17.83;2.55;;;9.60;99.90;;;;;;5157904;27;20045;-69
2023/05/24 03:22:42;;;;;;;8.10;2.20;;;9.60;99.90;;;;;;5158161;27;20062;-69
2023/05/24 03:25:08;;;;;;;10.70;2.63;;;9.60;99.90;;;;;;5139463;27;20046;-70
2023/05/24 03:27:35;;;;;;;9.18;1.95;;;9.50;99.90;;;;;;5158315;27;20059;-70
2023/05/24 03:30:01;;;;;;;12.82;2.95;;;9.50;99.90;;;;;;5157763;27;20394;-69
2023/05/24 03:32:26;;;;;;;9.48;2.22;;;9.50;99.90;;;;;;5139157;27;20042;-70
2023/05/24 03:34:52;;;;;;;11.45;2.42;;;9.50;99.90;;;;;;5120747;27;20078;-70
2023/05/24 03:37:18;;;;;;;9.70;2.28;;;9.50;99.90;;;;;;5157507;27;20050;-70
2023/05/24 03:39:44;;;;;;;9.60;2.22;;;9.50;99.90;;;;;;5157936;27;20118;-69
2023/05/24 03:42:10;;;;;;;12.00;2.08;;;9.50;99.90;;;;;;5157234;27;20092;-69
2023/05/24 03:44:35;;;;;;;8.02;2.17;;;9.50;99.90;;;;;;5157725;27;20049;-69
2023/05/24 03:47:02;;;;;;;8.85;2.33;;;9.70;99.90;;;;;;5157296;27;20046;-69
2023/05/24 03:49:28;;;;;;;12.43;2.25;;;9.60;99.90;;;;;;5139105;27;20129;-70
2023/05/24 03:51:53;;;;;;;8.65;2.70;;;9.60;99.90;;;;;;5138428;27;20512;-70
2023/05/24 03:54:19;;;;;;;7.75;2.45;;;9.60;99.90;;;;;;5157110;27;20046;-69
2023/05/24 03:56:45;;;;;;;10.43;2.13;;;9.60;99.90;;;;;;5138576;27;20086;-69
2023/05/24 03:59:11;;;;;;;8.10;1.90;;;9.70;99.90;;;;;;5156981;27;20038;-69
2023/05/24 04:01:37;;;;;;;8.60;2.42;;;9.70;99.90;;;;;;5156994;27;20042;-69
2023/05/24 04:04:03;;;;;;;11.85;2.03;;;9.90;99.90;;;;;;5156987;27;20045;-69
2023/05/24 04:06:29;;;;;;;9.73;2.40;;;9.80;99.90;;;;;;5156479;27;20122;-69
2023/05/24 04:08:56;;;;;;;9.18;1.63;;;9.80;99.90;;;;;;5156914;27;20095;-69
2023/05/24 04:11:22;;;;;;;7.22;1.77;;;9.80;99.90;;;;;;5157053;27;20043;-69
2023/05/24 04:13:51;;;;;;;12.57;3.15;;;9.90;99.90;;;;;;5156801;27;20043;-70
2023/05/24 04:16:17;;;;;;;8.35;2.13;;;9.90;99.90;;;;;;5138399;27;20136;-69
2023/05/24 04:18:44;;;;;;;12.57;2.35;;;10.00;99.90;;;;;;5156422;27;20117;-69
2023/05/24 04:21:10;;;;;;;11.10;1.83;;;10.00;99.90;;;;;;5156101;27;20510;-70
2023/05/24 04:23:36;;;;;;;10.77;2.40;;;10.00;99.90;;;;;;5156766;27;20095;-69
2023/05/24 04:26:01;;;;;;;11.10;2.55;;;10.00;99.90;;;;;;5138710;27;20050;-69
2023/05/24 04:28:27;;;;;;;10.48;2.30;;;10.10;99.90;;;;;;5156718;27;20043;-69
2023/05/24 04:30:54;;;;;;;8.70;1.85;;;10.10;99.90;;;;;;5157092;27;20082;-69
2023/05/24 04:33:21;;;;;;;14.98;2.08;;;10.10;99.90;;;;;;5156037;27;20479;-69
2023/05/24 04:35:47;;;;;;;10.02;2.30;;;10.10;99.90;;;;;;5137412;27;20047;-69
2023/05/24 04:38:13;;;;;;;14.57;2.75;;;10.20;99.90;;;;;;5138093;27;20127;-70
2023/05/24 04:40:38;;;;;;;8.70;1.70;;;10.20;99.90;;;;;;5156200;27;20042;-68
2023/05/24 04:43:06;;;;;;;13.00;2.42;;;10.20;99.90;;;;;;5155999;27;20042;-68
2023/05/24 04:45:32;;;;;;;11.30;2.47;;;10.20;99.90;;;;;;5156206;27;20046;-69
2023/05/24 04:47:58;;;;;;;9.95;1.92;;;10.20;99.90;;;;;;5156068;27;20140;-69
2023/05/24 04:50:24;;;;;;;9.20;1.98;;;10.20;99.90;;;;;;5156095;27;20043;-69
2023/05/24 04:52:50;;;;;;;11.70;2.55;;;10.30;99.90;;;;;;5156056;27;20043;-69
2023/05/24 04:55:16;;;;;;;12.05;2.20;;;10.30;99.90;;;;;;5137782;27;20042;-69
2023/05/24 04:57:41;;;;;;;10.20;2.38;;;10.30;99.90;;;;;;5156561;27;20125;-68
2023/05/24 05:00:09;;;;;;;11.43;2.78;;;10.40;99.90;;;;;;5155833;27;20035;-69
2023/05/24 05:02:34;;;;;;;13.00;2.50;;;10.40;99.90;;;;;;5155960;27;20046;-69
2023/05/24 05:05:00;;;;;;;10.70;1.75;;;10.60;99.90;;;;;;5154904;27;20149;-69
2023/05/24 05:07:26;;;;;;;8.10;2.33;;;10.60;99.90;;;;;;5155867;27;20039;-68
2023/05/24 05:09:51;;;;;;;11.07;2.55;;;10.70;99.90;;;;;;5155751;27;20050;-69
2023/05/24 05:12:17;;;;;;;10.85;2.50;;;10.80;99.90;;;;;;5156147;27;20049;-70
2023/05/24 05:14:43;;;;;;;11.45;2.35;;;10.90;99.90;;;;;;5138136;27;20042;-68
2023/05/24 05:17:09;;;;;;;7.65;2.17;;;10.90;99.90;;;;;;5155170;27;20050;-68
2023/05/24 05:19:34;;;;;;;11.93;2.55;;;11.00;99.90;;;;;;5155504;27;20127;-68
2023/05/24 05:22:00;;;;;;;6.53;2.03;;;11.00;99.90;;;;;;5155186;27;20073;-68
2023/05/24 05:24:26;;;;;;;9.10;2.08;;;11.10;99.90;;;;;;5155421;27;20512;-69
2023/05/24 05:26:52;;;;;;;7.53;1.90;;;11.10;99.90;;;;;;5155409;27;20051;-68
2023/05/24 05:29:17;;;;;;;10.07;2.47;;;11.20;99.90;;;;;;5155670;27;20126;-69
2023/05/24 05:31:43;;;;;;;9.48;2.05;;;11.20;99.90;;;;;;5155414;27;20055;-69
2023/05/24 05:34:09;;;;;;;12.23;2.10;;;11.20;99.90;;;;;;5155620;27;20478;-69
2023/05/24 05:36:39;;;;;;;9.35;2.38;;;11.20;99.90;;;;;;5136996;27;20050;-70
2023/05/24 05:39:08;;;;;;;8.50;2.50;;;11.20;99.90;;;;;;5155568;27;20055;-69
2023/05/24 05:41:37;;;;;;;8.32;2.25;;;11.20;99.90;;;;;;5155375;27;20491;-69
2023/05/24 05:44:03;;;;;;;8.77;2.00;;;11.20;99.90;;;;;;5155519;27;20050;-68
2023/05/24 05:46:28;;;;;;;12.50;2.63;;;11.20;99.90;;;;;;5155429;27;20385;-68
2023/05/24 05:48:54;;;;;;;9.07;2.50;;;11.20;99.90;;;;;;5154966;27;20436;-68
2023/05/24 05:51:20;;;;;;;9.63;2.05;;;11.10;99.90;;;;;;5155335;27;20042;-68
2023/05/24 05:53:46;;;;;;;8.35;1.92;;;11.10;99.90;;;;;;5136784;27;20478;-68
2023/05/24 05:56:11;;;;;;;10.82;2.13;;;11.10;99.90;;;;;;5155187;27;20126;-68
2023/05/24 05:58:37;;;;;;;8.38;1.90;;;11.10;99.90;;;;;;5156347;27;20199;-68
2023/05/24 06:01:03;;;;;;;9.70;1.80;;;11.10;99.90;;;;;;5159451;27;20043;-70
2023/05/24 06:03:29;;;;;;;11.07;2.22;;;11.10;99.90;;;;;;5159450;27;20082;-69
2023/05/24 06:05:55;;;;;;;11.70;1.83;;;11.10;99.90;;;;;;5123800;27;20130;-70
2023/05/24 06:08:21;;;;;;;7.53;2.40;;;11.20;99.90;;;;;;5159723;27;20088;-69
2023/05/24 06:10:46;;;;;;;10.35;2.05;;;11.20;99.90;;;;;;5140865;27;20059;-69
2023/05/24 06:13:12;;;;;;;12.57;2.88;;;11.20;99.90;;;;;;5140744;27;20049;-68
2023/05/24 06:15:38;;;;;;;8.55;2.22;;;11.30;99.90;;;;;;5140916;27;20043;-69
2023/05/24 06:18:04;;;;;;;7.80;1.95;;;11.30;99.90;;;;;;5159090;27;20459;-69
2023/05/24 06:20:30;;;;;;;8.45;1.90;;;11.40;99.90;;;;;;5140194;27;20046;-69
2023/05/24 06:22:56;;;;;;;8.73;1.63;;;11.40;99.90;;;;;;5159055;27;20554;-69
2023/05/24 06:25:23;;;;;;;9.52;2.03;;;11.50;99.90;;;;;;5159025;27;20051;-68
2023/05/24 06:27:50;;;;;;;9.35;2.30;;;11.50;99.90;;;;;;5158637;27;20595;-69
2023/05/24 06:30:16;;;;;;;14.43;2.70;;;11.60;99.90;;;;;;5158898;27;20455;-69
2023/05/24 06:32:42;;;;;;;7.55;2.30;;;11.60;99.90;;;;;;5158855;27;20125;-70
2023/05/24 06:35:08;;;;;;;7.50;1.90;;;11.70;99.90;;;;;;5157912;27;20082;-68
2023/05/24 06:37:34;;;;;;;13.93;2.00;;;11.70;99.90;;;;;;5140541;27;20096;-68
2023/05/24 06:40:00;;;;;;;10.52;2.08;;;11.70;99.90;;;;;;5159755;27;20477;-79
2023/05/24 06:42:26;;;;;;;11.15;2.20;;;11.70;99.90;;;;;;5158840;27;20039;-69
2023/05/24 06:44:52;;;;;;;12.65;1.88;;;11.80;99.90;;;;;;5159076;27;20176;-68
2023/05/24 06:47:17;;;;;;;12.45;2.10;;;11.80;99.90;;;;;;5140179;27;20042;-69
2023/05/24 06:49:43;;;;;;;7.88;1.67;;;11.90;99.90;;;;;;5158642;27;20038;-69
2023/05/24 06:52:09;;;;;;;7.80;2.53;;;11.90;99.90;;;;;;5140483;27;20552;-71
2023/05/24 06:54:35;;;;;;;8.40;2.35;;;11.90;99.90;;;;;;5140304;27;20156;-68
2023/05/24 06:57:00;;;;;;;8.05;1.70;;;12.00;99.90;;;;;;5158518;27;20067;-70
2023/05/24 06:59:26;;;;;;;8.68;1.58;;;12.00;99.90;;;;;;5158131;27;20043;-70
2023/05/24 07:01:56;;;;;;;6.30;1.70;;;12.00;99.90;;;;;;5140363;27;20049;-68
2023/05/24 07:04:23;;;;;;;7.93;1.90;;;12.00;99.90;;;;;;5159174;27;20054;-68
2023/05/24 07:06:50;;;;;;;4.38;1.25;;;12.00;99.90;;;;;;5157944;27;20064;-70
2023/05/24 07:09:19;;;;;;;8.02;1.70;;;12.10;99.90;;;;;;5158252;27;20039;-67
2023/05/24 07:11:45;;;;;;;5.93;1.50;;;12.10;99.90;;;;;;5158291;27;20510;-68
2023/05/24 07:14:11;;;;;;;10.55;2.67;;;12.10;99.90;;;;;;5158301;27;20095;-70
2023/05/24 07:16:37;;;;;;;5.72;1.65;;;12.20;99.90;;;;;;5157894;27;20477;-68
2023/05/24 07:19:02;;;;;;;9.73;1.85;;;12.20;99.90;;;;;;5158047;27;20129;-68
2023/05/24 07:21:28;;;;;;;7.68;1.75;;;12.30;99.90;;;;;;5157737;27;20506;-67
2023/05/24 07:23:54;;;;;;;6.97;1.73;;;12.30;99.90;;;;;;5157441;27;20050;-72
2023/05/24 07:26:20;;;;;;;8.95;1.35;;;12.30;99.90;;;;;;5139075;27;20046;-67
2023/05/24 07:28:47;;;;;;;10.30;2.00;;;12.30;99.90;;;;;;5157570;27;20078;-68
2023/05/24 07:31:12;;;;;;;9.60;1.55;;;12.30;99.90;;;;;;5157629;27;20501;-67
2023/05/24 07:33:38;;;;;;;8.88;1.88;;;12.40;99.90;;;;;;5157435;27;20050;-68
2023/05/24 07:36:05;;;;;;;9.13;1.65;;;12.40;99.90;;;;;;5156804;27;20034;-68
2023/05/24 07:38:31;;;;;;;7.57;1.45;;;12.40;99.90;;;;;;5157814;27;20050;-67
2023/05/24 07:41:05;;;;;;;6.65;1.55;;;12.50;99.90;;;;;;5157373;27;20159;-72
2023/05/24 07:43:31;;;;;;;5.43;1.77;;;12.50;99.90;;;;;;5155853;27;20071;-68
2023/05/24 07:45:56;;;;;;;7.22;2.17;;;12.50;99.90;;;;;;5159894;27;20117;-70
2023/05/24 07:48:23;;;;;;;8.90;1.92;;;12.60;99.90;;;;;;5158711;27;20042;-68
2023/05/24 07:50:51;;;;;;;6.82;1.33;;;12.60;99.90;;;;;;5159154;27;20500;-67
2023/05/24 07:53:18;;;;;;;7.10;1.70;;;12.70;99.90;;;;;;5139218;27;20039;-67
2023/05/24 07:55:45;;;;;;;3.95;1.20;;;12.70;99.90;;;;;;5116665;27;20043;-71
2023/05/24 07:58:10;;;;;;;4.68;1.80;;;12.70;99.90;;;;;;5156909;27;20065;-69
2023/05/24 08:00:37;;;;;;;5.30;1.50;;;12.70;99.90;;;;;;5156517;27;20121;-68
2023/05/24 08:03:04;;;;;;;6.53;1.60;;;12.70;99.90;;;;;;5156848;27;20039;-68
2023/05/24 08:05:30;;;;;;;5.00;1.40;;;12.80;99.90;;;;;;5153563;27;20049;-69
2023/05/24 08:07:56;;;;;;;5.55;1.55;;;12.80;99.90;;;;;;5155393;27;20058;-68
2023/05/24 08:10:23;;;;;;;7.57;1.58;;;12.90;99.90;;;;;;5156374;27;20074;-68
2023/05/24 08:12:53;;;;;;;6.13;1.45;;;12.90;99.90;;;;;;5156397;27;20050;-68
2023/05/24 08:15:19;;;;;;;7.07;1.67;;;13.00;99.90;;;;;;5156233;27;20081;-67
2023/05/24 08:17:45;;;;;;;6.10;1.45;;;13.00;99.90;;;;;;5156432;27;20222;-68
2023/05/24 08:20:15;;;;;;;5.55;1.20;;;13.10;99.90;;;;;;5156107;27;20468;-68
2023/05/24 08:22:41;;;;;;;7.95;1.45;;;13.20;99.90;;;;;;5154992;27;20051;-67
2023/05/24 08:25:08;;;;;;;5.00;1.35;;;13.30;99.90;;;;;;5137041;27;20046;-85
2023/05/24 08:27:34;;;;;;;4.53;1.40;;;13.50;99.90;;;;;;5155886;27;20521;-66
2023/05/24 08:30:00;;;;;;;6.10;1.75;;;13.50;99.90;;;;;;5156212;27;20121;-67
2023/05/24 08:32:26;;;;;;;4.82;1.30;;;13.60;99.90;;;;;;5155781;27;20042;-68
2023/05/24 08:34:52;;;;;;;7.63;1.85;;;13.70;99.90;;;;;;5155575;27;20550;-70
2023/05/24 08:37:19;;;;;;;4.95;1.20;;;13.70;99.90;;;;;;5156022;27;20050;-67
2023/05/24 08:39:45;;;;;;;6.32;1.52;;;13.60;99.90;;;;;;5155994;27;20117;-67
2023/05/24 08:42:11;;;;;;;6.30;1.70;;;13.60;99.90;;;;;;5155633;27;20034;-67
2023/05/24 08:44:48;;;;;;;4.45;1.88;;;13.60;99.90;;;;;;5155088;27;20494;-68
2023/05/24 08:47:14;;;;;;;5.05;1.33;;;13.60;99.90;;;;;;5134784;27;20092;-68
2023/05/24 08:49:41;;;;;;;6.28;1.50;;;13.60;99.90;;;;;;5137557;27;20402;-67
2023/05/24 08:52:10;;;;;;;4.88;1.20;;;13.60;99.90;;;;;;5138093;27;20529;-75
2023/05/24 08:54:36;;;;;;;5.88;1.30;;;13.60;99.90;;;;;;5152583;27;20125;-68
2023/05/24 08:57:02;;;;;;;7.47;1.42;;;13.60;99.90;;;;;;5118019;27;20047;-68
2023/05/24 08:59:28;;;;;;;4.15;1.40;;;13.60;99.90;;;;;;5155482;27;20058;-69
2023/05/24 09:01:56;;;;;;;6.28;1.30;;;13.60;99.90;;;;;;5155742;27;20398;-68
2023/05/24 09:04:23;;;;;;;6.15;1.27;;;13.50;99.90;;;;;;5156021;27;20120;-68
2023/05/24 09:06:51;;;;;;;7.75;1.75;;;13.40;99.90;;;;;;5155294;27;20045;-68
2023/05/24 09:09:17;;;;;;;7.88;1.90;;;13.40;99.90;;;;;;5156027;27;20050;-69
2023/05/24 09:11:46;;;;;;;5.55;1.30;;;13.40;99.90;;;;;;5137369;27;20126;-69
2023/05/24 09:14:12;;;;;;;4.80;1.13;;;13.40;99.90;;;;;;5155789;27;20047;-68
2023/05/24 09:16:38;;;;;;;3.28;1.20;;;13.30;99.90;;;;;;5156059;27;20047;-70
2023/05/24 09:19:04;;;;;;;6.82;1.50;;;13.30;99.90;;;;;;5156106;27;20065;-68
2023/05/24 09:21:31;;;;;;;5.57;1.73;;;13.40;99.90;;;;;;5155591;27;20059;-69
2023/05/24 09:23:57;;;;;;;6.75;1.50;;;13.40;99.90;;;;;;5155758;27;20054;-69
2023/05/24 09:26:29;;;;;;;5.80;1.20;;;13.30;99.90;;;;;;5155948;27;20042;-68
2023/05/24 09:28:56;;;;;;;6.07;1.90;;;13.30;99.90;;;;;;5137897;27;20039;-68
2023/05/24 09:31:32;;;;;;;8.60;1.75;;;13.20;99.90;;;;;;5155779;27;20121;-68
2023/05/24 09:33:58;;;;;;;5.25;1.55;;;13.10;99.90;;;;;;5154559;27;20047;-69
2023/05/24 09:36:28;;;;;;;4.65;1.40;;;13.10;99.90;;;;;;5154692;27;20041;-69
2023/05/24 09:39:17;;;;;;;8.25;1.58;;;13.10;99.90;;;;;;5155472;27;20099;-68
2023/05/24 09:41:44;;;;;;;5.20;1.83;;;13.10;99.90;;;;;;5155593;27;20042;-69
2023/05/24 09:44:14;;;;;;;6.88;1.50;;;13.10;99.90;;;;;;5155203;27;20129;-69
2023/05/24 09:46:39;;;;;;;6.20;1.50;;;13.10;99.90;;;;;;5155466;27;20478;-80
2023/05/24 09:49:06;;;;;;;6.60;1.85;;;13.20;99.90;;;;;;5155561;27;20043;-69
2023/05/24 09:51:36;;;;;;;4.68;1.48;;;13.20;99.90;;;;;;5155531;27;20046;-69
2023/05/24 09:54:03;;;;;;;7.00;1.67;;;13.20;99.90;;;;;;5155464;27;20057;-69
2023/05/24 09:56:31;;;;;;;6.22;2.15;;;13.20;99.90;;;;;;5155840;27;20472;-69
2023/05/24 09:58:57;;;;;;;8.25;1.77;;;13.30;99.90;;;;;;5155431;27;20082;-68
2023/05/24 10:01:24;;;;;;;4.93;1.70;;;13.30;99.90;;;;;;5155356;27;20039;-68
2023/05/24 10:03:57;;;;;;;4.95;1.95;;;13.30;99.90;;;;;;5155300;27;20443;-68
2023/05/24 10:06:24;;;;;;;7.55;1.65;;;13.40;99.90;;;;;;5154838;27;20045;-70
2023/05/24 10:08:50;;;;;;;6.80;1.40;;;13.40;99.90;;;;;;5155157;27;20061;-69
2023/05/24 10:11:17;;;;;;;7.68;1.77;;;13.40;99.90;;;;;;5155588;27;20379;-68
2023/05/24 10:13:43;;;;;;;8.40;1.92;;;13.40;99.90;;;;;;5155266;27;20042;-68
2023/05/24 10:16:09;;;;;;;6.07;1.70;;;13.50;99.90;;;;;;5155125;27;20087;-68
2023/05/24 10:18:35;;;;;;;7.00;1.88;;;13.50;99.90;;;;;;5155057;27;20050;-69
2023/05/24 10:21:06;;;;;;;4.53;1.70;;;13.50;99.90;;;;;;5154733;27;20042;-68
2023/05/24 10:23:34;;;;;;;6.88;2.17;;;13.50;99.90;;;;;;5155164;27;20063;-68
2023/05/24 10:26:11;;;;;;;8.77;2.20;;;13.50;99.90;;;;;;5155072;27;20427;-69
2023/05/24 10:28:47;;;;;;;7.78;1.77;;;13.40;99.90;;;;;;5155137;27;20058;-68
2023/05/24 10:31:30;;;;;;;4.50;1.58;;;13.40;99.90;;;;;;5155113;27;20047;-67
2023/05/24 10:33:58;;;;;;;5.55;1.63;;;13.40;99.90;;;;;;5155090;27;20478;-68
2023/05/24 10:36:25;;;;;;;8.05;2.30;;;13.30;99.90;;;;;;5154385;27;20053;-67
2023/05/24 10:38:51;;;;;;;5.45;1.55;;;13.30;99.90;;;;;;5136383;27;20082;-67
2023/05/24 10:41:18;;;;;;;7.20;1.67;;;13.30;99.90;;;;;;5154940;27;20473;-69
2023/05/24 10:43:47;;;;;;;4.60;2.20;;;13.30;99.90;;;;;;5154859;27;20049;-68
2023/05/24 10:46:15;;;;;;;5.87;2.10;;;13.30;99.90;;;;;;5158610;27;20414;-68
2023/05/24 10:48:41;;;;;;;5.95;1.45;;;13.30;99.90;;;;;;5159147;27;20042;-68
2023/05/24 10:51:31;;;;;;;6.78;1.63;;;13.30;99.90;;;;;;5158722;27;20046;-68
2023/05/24 10:54:09;;;;;;;5.40;1.52;;;13.40;99.90;;;;;;5140561;27;20126;-69
2023/05/24 10:56:40;;;;;;;6.68;2.15;;;13.50;99.90;;;;;;5158979;27;20057;-68
2023/05/24 10:59:07;;;;;;;4.38;1.73;;;13.60;99.90;;;;;;5158569;27;20043;-71
2023/05/24 11:01:33;;;;;;;5.43;1.67;;;13.60;99.90;;;;;;5158680;27;20050;-68
2023/05/24 11:04:15;;;;;;;6.25;1.80;;;13.70;99.90;;;;;;5159748;27;20049;-68
2023/05/24 11:06:46;;;;;;;5.70;1.90;;;13.80;99.90;;;;;;5139852;27;20484;-68
2023/05/24 11:09:13;;;;;;;8.43;2.05;;;13.90;99.90;;;;;;5158610;27;20045;-68
2023/05/24 11:11:44;;;;;;;5.68;2.00;;;14.00;99.90;;;;;;5140241;27;20058;-69
2023/05/24 11:14:10;;;;;;;6.72;1.90;;;14.10;99.90;;;;;;5158637;27;20134;-68
2023/05/24 11:16:39;;;;;;;4.65;1.50;;;14.10;99.90;;;;;;5158196;27;20133;-69
2023/05/24 11:19:29;;;;;;;4.15;1.50;;;14.10;99.90;;;;;;5158152;27;20145;-68
2023/05/24 11:21:59;;;;;;;6.43;1.90;;;14.10;99.90;;;;;;5157831;27;20096;-68
2023/05/24 11:24:26;;;;;;;4.50;1.63;;;14.20;99.90;;;;;;5158242;27;20051;-68
2023/05/24 11:26:52;;;;;;;4.88;1.50;;;14.20;99.90;;;;;;5158106;27;20042;-68
2023/05/24 11:29:21;;;;;;;7.40;1.60;;;14.30;99.90;;;;;;5158081;27;20051;-69
2023/05/24 11:32:03;;;;;;;5.95;1.55;;;14.40;99.90;;;;;;5157921;27;20042;-69
2023/05/24 11:34:30;;;;;;;5.63;1.58;;;14.40;99.90;;;;;;5157957;27;20042;-68
2023/05/24 11:36:57;;;;;;;6.25;1.52;;;14.50;99.90;;;;;;5139171;27;20483;-68
2023/05/24 11:39:27;;;;;;;5.18;1.60;;;14.40;99.90;;;;;;5157699;27;20042;-71
2023/05/24 11:41:53;;;;;;;6.20;1.60;;;14.40;99.90;;;;;;5157743;27;20050;-68
2023/05/24 11:44:19;;;;;;;6.28;1.30;;;14.40;99.90;;;;;;5139786;27;20043;-68
2023/05/24 11:46:45;;;;;;;5.38;1.63;;;14.40;99.90;;;;;;5157673;27;20039;-68
2023/05/24 11:49:13;;;;;;;5.05;1.50;;;14.40;99.90;;;;;;5157350;27;20547;-82
2023/05/24 11:51:39;;;;;;;5.90;1.42;;;14.30;99.90;;;;;;5157958;27;20039;-69
2023/05/24 11:54:04;;;;;;;7.20;1.33;;;14.30;99.90;;;;;;5124216;27;20053;-68
2023/05/24 11:56:31;;;;;;;5.55;1.42;;;14.30;99.90;;;;;;5161477;27;20067;-69
2023/05/24 11:59:09;;;;;;;3.28;1.35;;;14.20;99.90;;;;;;5162027;27;20047;-67
2023/05/24 12:01:34;;;;;;;4.25;1.20;;;14.10;99.90;;;;;;5157918;27;20043;-68
2023/05/24 12:04:00;;;;;;;6.65;1.40;;;14.10;99.90;;;;;;5157119;27;20179;-68
2023/05/24 12:06:43;;;;;;;3.67;1.25;;;14.10;99.90;;;;;;5156962;27;20046;-68
2023/05/24 12:09:12;;;;;;;8.10;1.70;;;14.20;99.90;;;;;;5158391;27;20039;-68
2023/05/24 12:11:42;;;;;;;5.50;1.50;;;14.20;99.90;;;;;;5157238;27;20039;-70
2023/05/24 12:14:19;;;;;;;4.80;1.33;;;14.30;99.90;;;;;;5138572;27;20077;-68
2023/05/24 12:16:45;;;;;;;6.68;1.27;;;14.40;99.90;;;;;;5157099;27;20049;-68
2023/05/24 12:19:21;;;;;;;5.72;1.38;;;14.50;99.90;;;;;;5157202;27;20063;-67
2023/05/24 12:21:48;;;;;;;6.38;1.50;;;14.60;99.90;;;;;;5156615;27;20119;-70
2023/05/24 12:24:15;;;;;;;5.50;1.73;;;14.60;99.90;;;;;;5156999;27;20086;-68
2023/05/24 12:26:43;;;;;;;4.57;1.50;;;14.70;99.90;;;;;;5158070;27;20125;-68
2023/05/24 12:29:11;;;;;;;4.95;1.40;;;14.60;99.90;;;;;;5156474;27;20076;-68
2023/05/24 12:31:46;;;;;;;3.95;1.40;;;14.70;99.90;;;;;;5156504;27;20050;-68
2023/05/24 12:34:14;;;;;;;6.45;1.77;;;14.70;99.90;;;;;;5156826;27;20089;-68
2023/05/24 12:36:41;;;;;;;6.18;2.00;;;14.70;99.90;;;;;;5156099;27;20042;-68
2023/05/24 12:39:23;;;;;;;6.20;1.88;;;14.70;99.90;;;;;;5138296;27;20047;-68
2023/05/24 12:41:51;;;;;;;5.32;1.58;;;14.70;99.90;;;;;;5157264;27;20050;-68
2023/05/24 12:44:18;;;;;;;6.75;2.33;;;14.70;99.90;;;;;;5156538;27;20050;-71
2023/05/24 12:46:43;;;;;;;5.32;2.00;;;14.70;99.90;;;;;;5156186;27;20514;-68
2023/05/24 12:49:09;;;;;;;6.82;1.90;;;14.60;99.90;;;;;;5156490;27;20077;-69
2023/05/24 12:51:35;;;;;;;5.60;1.83;;;14.50;99.90;;;;;;5156650;27;20097;-68